• Join FlightAware (Why Join?)
  • Login
  • US Flag 
03:05AM EDT


 

Airport Tracker/Info


-or-


 

Live Flight TrackerFlight Track Log ✈ BOE1 ✈ 2013年 05月 03日 ✈ KBFI - KMWH

Flight Track Log - Related Links

Times and Time Zones

All times are in EDT time to prevent confusion due to time zone crossing. See the BOE1 flight status page for this flight to view local times or setup timezone preferences in your user account.

Time Position Orientation Groundspeed Altitude Reporting Facility
EDT Latitude Longitude Course Direction KTS MPH feet Rate Location/Type
02:02PM 47.5469 -122.3208 330° Northwest 176 203 1,700  Level Seattle Center
02:03PM 47.5892 -122.3567 330° Northwest 239 275 3,100 900 Climbing Seattle Center
02:04PM 47.6303 -122.4228 313° West 262 302 3,300 1,200 Climbing Seattle Center
02:05PM 47.6419 -122.4606 295° West 260 299 4,700 3,900 Climbing Seattle Center
02:06PM 47.6758 -122.5669 295° West 266 306 8,900 3,480 Climbing Seattle Center
02:07PM 47.6981 -122.6839 286° West 299 344 11,800 3,000 Climbing Seattle Center
02:08PM 47.7269 -122.8125 289° West 325 374 15,000 2,280 Climbing Seattle Center
02:09PM 47.7553 -122.9342 289° West 330 380 16,500 1,620 Climbing Seattle Center
02:10PM 47.7861 -123.0661 289° West 340 391 18,400 2,160 Climbing Seattle Center
02:11PM 47.8172 -123.2008 289° West 348 400 21,000 2,820 Climbing Seattle Center
02:12PM 47.8481 -123.3433 288° West 359 413 24,200 3,000 Climbing Seattle Center
02:13PM 47.8919 -123.5144 291° West 370 426 27,100 2,460 Climbing Seattle Center
02:14PM 47.9456 -123.6556 300° West 389 448 29,300 2,040 Climbing Seattle Center
02:15PM 47.9981 -123.7986 299° West 394 453 31,300 1,860 Climbing Seattle Center
02:16PM 48.0525 -123.9447 299° West 403 464 33,200 2,100 Climbing Seattle Center
02:17PM 48.1058 -124.0917 299° West 403 464 35,700 1,800 Climbing Seattle Center
02:18PM 48.1567 -124.2333 298° West 391 450 37,000 1,020 Climbing Seattle Center
02:19PM 48.2119 -124.3806 299° West 404 465 37,800 1,320 Climbing Seattle Center
02:20PM 48.2717 -124.5264 302° West 411 473 39,700 1,440 Climbing Seattle Center
02:21PM 48.3111 -124.6814 291° West 407 468 40,800 540 Climbing Seattle Center
02:22PM 48.2208 -124.8025 222° Southwest 454 522 40,900 60 Climbing Seattle Center
02:23PM 48.1053 -124.7456 162° South 481 554 41,000  Climbing Seattle Center
02:24PM 48.0564 -124.5675 112° Southeast 472 543 40,900 -60 Descending Seattle Center
02:25PM 48.0250 -124.3431 102° East 466 536 40,900  Level Seattle Center
02:26PM 47.9942 -124.1544 104° East 470 541 40,900  Level Seattle Center
02:27PM 47.9633 -123.9656 104° East 471 542 41,000  Climbing Seattle Center
02:28PM 47.9378 -123.7792 101° East 465 535 41,000  Level Seattle Center
02:29PM 47.9036 -123.5783 104° East 477 549 41,000  Level Seattle Center
02:30PM 47.8717 -123.3822 104° East 491 565 41,000  Level Seattle Center
02:31PM 47.8397 -123.1864 104° East 492 566 41,000  Level Seattle Center
02:32PM 47.8092 -122.9969 103° East 480 552 41,000  Level Seattle Center
02:33PM 47.7775 -122.8067 104° East 478 550 41,000  Level Seattle Center
02:34PM 47.7439 -122.6167 105° East 479 551 41,000 -60 Level Seattle Center
02:35PM 47.7039 -122.3950 105° East 479 551 40,900  Descending Seattle Center
02:36PM 47.6797 -122.2231 102° East 478 550 41,000  Climbing Seattle Center
02:37PM 47.6536 -122.0328 101° East 475 547 41,000  Level Seattle Center
02:38PM 47.6275 -121.8428 101° East 474 545 41,000  Level Seattle Center
02:39PM 47.6006 -121.6544 102° East 473 544 41,000  Level Seattle Center
02:40PM 47.5600 -121.4322 105° East 471 542 41,000  Level Seattle Center
02:41PM 47.5256 -121.2478 105° East 470 541 41,000  Level Seattle Center
02:42PM 47.4894 -121.0653 106° East 466 536 41,000  Level Seattle Center
02:43PM 47.4544 -120.8817 106° East 467 537 41,000  Level Seattle Center
02:44PM 47.4194 -120.7028 106° East 465 535 41,000 -60 Level Seattle Center
02:45PM 47.3836 -120.5217 106° East 462 532 40,900 -60 Descending Seattle Center
02:46PM 47.3469 -120.3397 107° East 463 533 40,900  Level Seattle Center
02:47PM 47.3106 -120.1589 106° East 463 533 40,900 -600 Level Seattle Center
02:48PM 47.2669 -119.9469 107° East 455 524 39,700 -1,500 Descending Seattle Center
02:49PM 47.2333 -119.7800 106° East 431 496 37,900 -1,860 Descending Seattle Center
02:50PM 47.1992 -119.6158 107° East 423 487 36,000 -1,560 Descending Seattle Center
02:51PM 47.1656 -119.4622 108° East 403 464 34,800 -2,220 Descending Seattle Center
02:52PM 47.1369 -119.3181 106° East 378 435 31,500 -3,960 Descending Seattle Center
02:53PM 47.1053 -119.1569 106° East 404 465 26,800 -3,540 Descending Seattle Center
02:54PM 47.0678 -118.9900 108° East 421 484 24,400 -2,580 Descending Seattle Center
02:55PM 47.0322 -118.8311 108° East 421 484 21,600 -2,520 Descending Seattle Center
02:56PM 46.9975 -118.6761 108° East 412 474 19,300 -2,580 Descending Seattle Center
02:57PM 46.9683 -118.5297 106° East 389 448 16,400 -2,160 Descending Seattle Center
02:58PM 46.9369 -118.3844 108° East 376 433 14,900 -780 Descending Seattle Center
03:00PM 46.9003 -118.2208 108° East 355 409 14,900  Level Seattle Center
03:01PM 46.8733 -118.0939 107° East 332 382 15,000  Climbing Seattle Center
03:02PM 46.8456 -117.9742 109° East 317 365 14,900  Descending Seattle Center
03:03PM 46.8144 -117.8569 111° Southeast 314 361 15,000  Climbing Seattle Center
03:04PM 46.7950 -117.7344 103° East 313 360 14,900 -60 Descending Seattle Center
03:05PM 46.7689 -117.6156 108° East 315 362 14,900  Level Seattle Center
03:06PM 46.7331 -117.5011 115° Southeast 312 359 15,000  Climbing Seattle Center
03:07PM 46.6653 -117.4244 142° Southeast 342 394 15,000 -60 Level Seattle Center
03:08PM 46.5978 -117.5097 221° Southwest 330 380 14,900 -60 Descending Seattle Center
03:09PM 46.5358 -117.6050 227° Southwest 326 375 14,900  Level Seattle Center
03:10PM 46.4736 -117.6958 225° Southwest 259 298 15,000  Climbing Seattle Center
03:11PM 46.4292 -117.7658 227° Southwest 236 272 15,000  Level Seattle Center
03:12PM 46.3856 -117.8328 227° Southwest 230 265 15,000  Level Seattle Center
03:13PM 46.3464 -117.8892 225° Southwest 204 235 15,000  Level Seattle Center
03:14PM 46.3092 -117.9442 226° Southwest 194 223 15,000  Level Seattle Center
03:15PM 46.2728 -117.9994 226° Southwest 190 219 15,000  Level Seattle Center
03:16PM 46.2375 -118.0511 225° Southwest 182 209 15,000  Level Seattle Center
03:17PM 46.2011 -118.1028 225° Southwest 183 211 15,000 -60 Level Seattle Center
03:18PM 46.1608 -118.1672 228° Southwest 209 241 14,900 -60 Descending Seattle Center
03:19PM 46.1125 -118.2422 227° Southwest 249 287 14,900  Level Seattle Center
03:20PM 46.0589 -118.3281 228° Southwest 281 323 15,000  Climbing Seattle Center
03:21PM 46.0125 -118.4036 229° Southwest 260 299 15,000 -60 Level Seattle Center
03:22PM 45.9669 -118.4789 229° Southwest 216 249 14,900 -60 Descending Seattle Center
03:23PM 45.9947 -118.5089 323° Northwest 146 168 14,900  Level Seattle Center
03:24PM 46.0244 -118.5269 337° Northwest 117 135 14,900  Level Seattle Center
03:25PM 46.0594 -118.5500 335° Northwest 127 146 15,000  Climbing Seattle Center
03:26PM 46.1014 -118.5769 336° Northwest 151 174 14,900  Descending Seattle Center
03:27PM 46.1500 -118.6097 335° Northwest 177 204 15,000  Climbing Seattle Center
03:28PM 46.1961 -118.6453 332° Northwest 185 213 14,900 -720 Descending Seattle Center
03:29PM 46.2361 -118.6639 342° North 174 200 13,600 -1,680 Descending Seattle Center
03:30PM 46.2744 -118.6536 10° North 161 185 11,500 -1,380 Descending Seattle Center
03:31PM 46.3194 -118.6858 334° Northwest 179 206 10,900 -300 Descending Seattle Center
03:32PM 46.3728 -118.7264 332° Northwest 221 254 10,900  Level Seattle Center
03:33PM 46.4453 -118.7792 333° Northwest 247 284 11,000  Climbing Seattle Center
03:34PM 46.5125 -118.8272 334° Northwest 267 307 10,900 -60 Descending Seattle Center
03:35PM 46.5789 -118.8772 333° Northwest 269 310 10,900 -120 Level Seattle Center
03:36PM 46.6394 -118.9450 322° Northwest 272 313 10,700 -1,080 Descending Seattle Center
03:37PM 46.7017 -119.0083 325° Northwest 274 315 8,800 -1,680 Descending Seattle Center
03:38PM 46.7692 -119.0731 327° Northwest 274 315 7,300 -1,140 Descending Seattle Center
03:39PM 46.8233 -119.1247 327° Northwest 255 293 6,500 -660 Descending Seattle Center
03:40PM 46.8750 -119.1622 334° Northwest 211 243 6,000 -840 Descending Seattle Center
03:41PM 46.9236 -119.1836 343° North 186 214 4,900 -1,080 Descending Seattle Center
03:42PM 46.9722 -119.2069 342° North 184 212 3,900 -840 Descending Seattle Center
03:43PM 47.0172 -119.2283 342° North 174 200 3,200 -540 Descending Seattle Center
03:44PM 47.0597 -119.2483 342° North 163 188 2,900 -240 Descending Seattle Center
03:45PM 47.1047 -119.2694 342° North 145 167 2,800 -120 Descending Seattle Center